Sincere Salute — 7JNA — position and weather

sailwx.info

Track history (hours):
 
Tides and Currents Weather Stations Pressure Air Temp Water Temp Dewpoint Dewpoint Depression Visibility Wind Speed Wind Dir Waves Ship Positions

Sincere Salute

Last reported at 2017-Aug-17 16:30 UTC. Time now 2017-Sep-24 03:35 UTC.
Position S 26°45' E 153°50'.
Warning: this ship's position is 37 days out of date.

Length 228 m; draft 13.3 m.

Type: Ship. MMSI: 432883000.

Date/timePositionNaut miles runAvg speedWind from/ knotsBaromVisibWave heightAir tempDewpointWater temp
2017-Aug-17 16:30S 26°45' E 153°50'810.0
2017-Aug-17 15:43S 26°53' E 153°49'5 9.3
2017-Aug-17 15:10S 26°58' E 153°48'3 9.2
2017-Aug-17 14:52S 27°01' E 153°48'3 9.4
2017-Aug-17 14:30S 27°04' E 153°48'5 9.2
2017-Aug-17 14:00S 27°09' E 153°47'4 9.1
2017-Aug-17 13:30S 27°13' E 153°47'4 8.7
2017-Aug-17 13:00S 27°17' E 153°47'4 8.2
2017-Aug-17 12:30S 27°21' E 153°47'4 8.2
2017-Aug-17 12:00S 27°26' E 153°46'4 8.0
2017-Aug-17 11:30S 27°30' E 153°47'4 7.9
2017-Aug-17 11:00S 27°33' E 153°47'4 7.8
2017-Aug-17 10:30S 27°37' E 153°47'4 7.9
2017-Aug-17 10:00S 27°41' E 153°47'4 7.8
2017-Aug-17 09:30S 27°45' E 153°48'4 7.7
2017-Aug-17 09:00S 27°49' E 153°48'4 7.4
2017-Aug-17 08:30S 27°53' E 153°48'4 7.2
2017-Aug-17 08:00S 27°56' E 153°48'4 8.2
2017-Aug-17 07:29S 28°01' E 153°48'4 8.5
2017-Aug-17 07:00S 28°05' E 153°48'4 8.5
2017-Aug-17 06:30S 28°09' E 153°47'4 8.5
2017-Aug-17 06:00S 28°13' E 153°47'4 8.4
2017-Aug-17 05:30S 28°17' E 153°46'4 8.0
2017-Aug-17 05:00S 28°21' E 153°46'4 8.2
2017-Aug-17 04:30S 28°25' E 153°46'24610.1
2017-Aug-16 04:06S 32°25' E 152°42'111.2
2017-Aug-16 04:00S 32°26' E 152°42'510.9
2017-Aug-16 03:30S 32°31' E 152°39'611.0
2017-Aug-16 03:00S 32°35' E 152°34'611.1
2017-Aug-16 02:30S 32°39' E 152°29'510.9
2017-Aug-16 02:00S 32°42' E 152°24'510.7
2017-Aug-16 01:30S 32°46' E 152°20'510.4
2017-Aug-16 01:00S 32°49' E 152°15'510.2
2017-Aug-16 00:30S 32°52' E 152°10'510.0
2017-Aug-16 00:00S 32°54' E 152°04'510.1
2017-Aug-15 23:30S 32°55' E 151°58'510.3
2017-Aug-15 23:00S 32°57' E 151°53'3 6.9
2017-Aug-15 22:30S 32°55' E 151°49'2 4.4
2017-Aug-15 22:00S 32°55' E 151°46'2 0.3
2017-Aug-15 16:40S 32°53' E 151°46'0 0.0
2017-Aug-15 14:52S 32°53' E 151°46'0 0.1
2017-Aug-15 14:10S 32°53' E 151°46'0 0.0
2017-Aug-15 12:34S 32°53' E 151°46'0 0.0
2017-Aug-15 12:22S 32°53' E 151°46'0 0.0
2017-Aug-15 10:13S 32°53' E 151°46'0 0.0
2017-Aug-15 08:58S 32°53' E 151°46'0 0.0
2017-Aug-15 07:10S 32°53' E 151°46'0 0.1
2017-Aug-15 06:49S 32°53' E 151°46'0 0.1
2017-Aug-15 06:25S 32°53' E 151°46'0 0.0
2017-Aug-15 05:52S 32°53' E 151°46'0 0.0
2017-Aug-15 05:28S 32°53' E 151°46'0 0.4
2017-Aug-15 05:00S 32°53' E 151°46'2 3.5
2017-Aug-15 04:30S 32°55' E 151°46'4 7.3
2017-Aug-15 04:00S 32°56' E 151°51'4 7.2
2017-Aug-15 03:30S 32°59' E 151°53'2 4.3
2017-Aug-15 03:00S 33°01' E 151°54'3 5.3
2017-Aug-15 02:31S 33°03' E 151°55'3 6.4
2017-Aug-15 02:01S 33°06' E 151°57'1 2.2
2017-Aug-15 01:30S 33°07' E 151°58'0 0.9
2017-Aug-15 01:00S 33°06' E 151°58'1 1.1
2017-Aug-15 00:30S 33°06' E 151°58'1 1.1
2017-Aug-15 00:00S 33°05' E 151°57'1 1.3
2017-Aug-14 23:30S 33°05' E 151°57'1 1.4
2017-Aug-14 23:00S 33°04' E 151°57'1 2.1
2017-Aug-14 22:30S 33°03' E 151°57'4 7.6
2017-Aug-14 22:00S 32°59' E 151°58'4 8.1
2017-Aug-14 21:30S 32°56' E 152°01'4 8.3
2017-Aug-14 21:00S 32°54' E 152°06'4 8.5
2017-Aug-14 20:31S 32°52' E 152°10'4 8.3
2017-Aug-14 20:00S 32°51' E 152°15'4 8.6
2017-Aug-14 19:30S 32°49' E 152°19'4 8.9
2017-Aug-14 19:00S 32°46' E 152°23'4 8.6
2017-Aug-14 18:30S 32°43' E 152°27'4 8.8
2017-Aug-14 18:01S 32°40' E 152°31'4 8.9
2017-Aug-14 17:30S 32°37' E 152°35'4 8.5
2017-Aug-14 17:00S 32°34' E 152°38'4 8.2
2017-Aug-14 16:30S 32°31' E 152°42'4 8.5
2017-Aug-14 16:00S 32°27' E 152°44'511.0
2017-Aug-14 15:30S 32°22' E 152°47'2711.8
2017-Aug-14 13:13S 31°57' E 152°58'25211.1
2017-Aug-13 14:31S 27°49' E 153°54'714.2
2017-Aug-13 14:02S 27°43' E 153°54'114.0
2017-Aug-13 13:59S 27°42' E 153°54'713.9
2017-Aug-13 13:30S 27°35' E 153°54'  
Track history (hours):
 
Tides and Currents Weather Stations Pressure Air Temp Water Temp Dewpoint Dewpoint Depression Visibility Wind Speed Wind Dir Waves Ship Positions

Sincere Salute

Last reported at 2017-Aug-17 16:30 UTC. Time now 2017-Sep-24 03:35 UTC.
Position S 26°45' E 153°50'.
Warning: this ship's position is 37 days out of date.

Length 228 m; draft 13.3 m.

Type: Ship. MMSI: 432883000.

Date/timePositionNaut miles runAvg speedWind from/ knotsBaromVisibWave heightAir tempDewpointWater temp
2017-Aug-17 16:30S 26°45' E 153°50'810.0
2017-Aug-17 15:43S 26°53' E 153°49'5 9.3
2017-Aug-17 15:10S 26°58' E 153°48'3 9.2
2017-Aug-17 14:52S 27°01' E 153°48'3 9.4
2017-Aug-17 14:30S 27°04' E 153°48'5 9.2
2017-Aug-17 14:00S 27°09' E 153°47'4 9.1
2017-Aug-17 13:30S 27°13' E 153°47'4 8.7
2017-Aug-17 13:00S 27°17' E 153°47'4 8.2
2017-Aug-17 12:30S 27°21' E 153°47'4 8.2
2017-Aug-17 12:00S 27°26' E 153°46'4 8.0
2017-Aug-17 11:30S 27°30' E 153°47'4 7.9
2017-Aug-17 11:00S 27°33' E 153°47'4 7.8
2017-Aug-17 10:30S 27°37' E 153°47'4 7.9
2017-Aug-17 10:00S 27°41' E 153°47'4 7.8
2017-Aug-17 09:30S 27°45' E 153°48'4 7.7
2017-Aug-17 09:00S 27°49' E 153°48'4 7.4
2017-Aug-17 08:30S 27°53' E 153°48'4 7.2
2017-Aug-17 08:00S 27°56' E 153°48'4 8.2
2017-Aug-17 07:29S 28°01' E 153°48'4 8.5
2017-Aug-17 07:00S 28°05' E 153°48'4 8.5
2017-Aug-17 06:30S 28°09' E 153°47'4 8.5
2017-Aug-17 06:00S 28°13' E 153°47'4 8.4
2017-Aug-17 05:30S 28°17' E 153°46'4 8.0
2017-Aug-17 05:00S 28°21' E 153°46'4 8.2
2017-Aug-17 04:30S 28°25' E 153°46'24610.1
2017-Aug-16 04:06S 32°25' E 152°42'111.2
2017-Aug-16 04:00S 32°26' E 152°42'510.9
2017-Aug-16 03:30S 32°31' E 152°39'611.0
2017-Aug-16 03:00S 32°35' E 152°34'611.1
2017-Aug-16 02:30S 32°39' E 152°29'510.9
2017-Aug-16 02:00S 32°42' E 152°24'510.7
2017-Aug-16 01:30S 32°46' E 152°20'510.4
2017-Aug-16 01:00S 32°49' E 152°15'510.2
2017-Aug-16 00:30S 32°52' E 152°10'510.0
2017-Aug-16 00:00S 32°54' E 152°04'510.1
2017-Aug-15 23:30S 32°55' E 151°58'510.3
2017-Aug-15 23:00S 32°57' E 151°53'3 6.9
2017-Aug-15 22:30S 32°55' E 151°49'2 4.4
2017-Aug-15 22:00S 32°55' E 151°46'2 0.3
2017-Aug-15 16:40S 32°53' E 151°46'0 0.0
2017-Aug-15 14:52S 32°53' E 151°46'0 0.1
2017-Aug-15 14:10S 32°53' E 151°46'0 0.0
2017-Aug-15 12:34S 32°53' E 151°46'0 0.0
2017-Aug-15 12:22S 32°53' E 151°46'0 0.0
2017-Aug-15 10:13S 32°53' E 151°46'0 0.0
2017-Aug-15 08:58S 32°53' E 151°46'0 0.0
2017-Aug-15 07:10S 32°53' E 151°46'0 0.1
2017-Aug-15 06:49S 32°53' E 151°46'0 0.1
2017-Aug-15 06:25S 32°53' E 151°46'0 0.0
2017-Aug-15 05:52S 32°53' E 151°46'0 0.0
2017-Aug-15 05:28S 32°53' E 151°46'0 0.4
2017-Aug-15 05:00S 32°53' E 151°46'2 3.5
2017-Aug-15 04:30S 32°55' E 151°46'4 7.3
2017-Aug-15 04:00S 32°56' E 151°51'4 7.2
2017-Aug-15 03:30S 32°59' E 151°53'2 4.3
2017-Aug-15 03:00S 33°01' E 151°54'3 5.3
2017-Aug-15 02:31S 33°03' E 151°55'3 6.4
2017-Aug-15 02:01S 33°06' E 151°57'1 2.2
2017-Aug-15 01:30S 33°07' E 151°58'0 0.9
2017-Aug-15 01:00S 33°06' E 151°58'1 1.1
2017-Aug-15 00:30S 33°06' E 151°58'1 1.1
2017-Aug-15 00:00S 33°05' E 151°57'1 1.3
2017-Aug-14 23:30S 33°05' E 151°57'1 1.4
2017-Aug-14 23:00S 33°04' E 151°57'1 2.1
2017-Aug-14 22:30S 33°03' E 151°57'4 7.6
2017-Aug-14 22:00S 32°59' E 151°58'4 8.1
2017-Aug-14 21:30S 32°56' E 152°01'4 8.3
2017-Aug-14 21:00S 32°54' E 152°06'4 8.5
2017-Aug-14 20:31S 32°52' E 152°10'4 8.3
2017-Aug-14 20:00S 32°51' E 152°15'4 8.6
2017-Aug-14 19:30S 32°49' E 152°19'4 8.9
2017-Aug-14 19:00S 32°46' E 152°23'4 8.6
2017-Aug-14 18:30S 32°43' E 152°27'4 8.8
2017-Aug-14 18:01S 32°40' E 152°31'4 8.9
2017-Aug-14 17:30S 32°37' E 152°35'4 8.5
2017-Aug-14 17:00S 32°34' E 152°38'4 8.2
2017-Aug-14 16:30S 32°31' E 152°42'4 8.5
2017-Aug-14 16:00S 32°27' E 152°44'511.0
2017-Aug-14 15:30S 32°22' E 152°47'2711.8
2017-Aug-14 13:13S 31°57' E 152°58'25211.1
2017-Aug-13 14:31S 27°49' E 153°54'714.2
2017-Aug-13 14:02S 27°43' E 153°54'114.0
2017-Aug-13 13:59S 27°42' E 153°54'713.9
2017-Aug-13 13:30S 27°35' E 153°54'  

Dump ship's entire track history